Time;durP1;ratioP1;P1;durP2;ratioP2;P2;SDS_P1;SDS_P2;PMS_P1;PMS_P2;Temp;Humidity;BMP_temperature;BMP_pressure;BME280_temperature;BME280_humidity;BME280_pressure;Samples;Min_cycle;Max_cycle;Signal;HPM_P1;HPM_P2
2021/03/16 00:00:00;;;;;;;27.17;6.87;;;6.70;99.90;;;;;;5011290;28;20710;-84
2021/03/16 00:02:45;;;;;;;20.10;4.57;;;6.70;99.90;;;;;;5007817;28;20772;-85
2021/03/16 00:05:29;;;;;;;22.97;5.13;;;6.70;99.90;;;;;;5016234;28;20267;-85
2021/03/16 00:08:15;;;;;;;18.90;4.70;;;6.70;99.90;;;;;;5019408;28;20231;-83
2021/03/16 00:11:01;;;;;;;16.83;4.10;;;6.70;99.90;;;;;;5021279;28;20208;-85
2021/03/16 00:13:46;;;;;;;23.23;5.00;;;6.90;99.90;;;;;;5012266;28;20349;-85
2021/03/16 00:16:30;;;;;;;21.30;5.73;;;6.70;99.90;;;;;;5010577;28;20224;-85
2021/03/16 00:19:15;;;;;;;22.67;4.70;;;6.70;99.90;;;;;;5017199;28;20293;-83
2021/03/16 00:22:00;;;;;;;16.93;4.40;;;6.70;99.90;;;;;;5019023;28;20228;-86
2021/03/16 00:24:46;;;;;;;20.03;4.57;;;6.70;99.90;;;;;;5022693;28;20216;-83
2021/03/16 00:27:31;;;;;;;24.40;4.97;;;6.70;99.90;;;;;;5019583;28;20231;-85
2021/03/16 00:30:18;;;;;;;25.87;3.60;;;6.70;99.90;;;;;;5020119;28;20249;-86
2021/03/16 00:33:03;;;;;;;21.40;4.13;;;6.70;99.90;;;;;;5016340;28;20213;-84
2021/03/16 00:35:49;;;;;;;21.23;3.83;;;6.70;99.90;;;;;;5014825;28;20240;-85
2021/03/16 00:38:34;;;;;;;26.83;4.60;;;6.80;99.90;;;;;;5010325;28;20309;-87
2021/03/16 00:41:20;;;;;;;21.80;4.10;;;6.80;99.90;;;;;;5009056;28;20227;-85
2021/03/16 00:44:05;;;;;;;18.57;4.77;;;6.70;99.90;;;;;;5012842;28;20696;-85
2021/03/16 00:46:50;;;;;;;20.60;3.60;;;6.80;99.90;;;;;;5022360;28;20209;-82
2021/03/16 00:49:35;;;;;;;14.20;3.60;;;6.70;99.90;;;;;;5007586;28;20252;-82
2021/03/16 00:52:19;;;;;;;18.60;3.40;;;6.70;99.90;;;;;;5010615;28;20214;-84
2021/03/16 00:55:05;;;;;;;12.67;3.27;;;6.70;99.90;;;;;;5007273;28;20255;-84
2021/03/16 00:57:51;;;;;;;20.83;3.43;;;6.70;99.90;;;;;;5011162;28;20249;-85
2021/03/16 01:00:36;;;;;;;24.00;3.83;;;6.70;99.90;;;;;;5010325;28;20596;-84
2021/03/16 01:03:21;;;;;;;16.80;3.20;;;6.60;99.90;;;;;;5010706;28;20267;-85
2021/03/16 01:06:06;;;;;;;19.20;4.10;;;6.60;99.90;;;;;;5017172;28;20208;-85
2021/03/16 01:08:51;;;;;;;21.10;4.30;;;6.60;99.90;;;;;;5012883;28;20235;-83
2021/03/16 01:11:36;;;;;;;19.47;3.97;;;6.50;99.90;;;;;;5019473;28;20231;-85
2021/03/16 01:14:22;;;;;;;13.43;4.67;;;6.50;99.90;;;;;;5016405;28;20232;-83
2021/03/16 01:17:07;;;;;;;21.90;4.77;;;6.50;99.90;;;;;;5015482;28;20212;-85
2021/03/16 01:19:52;;;;;;;16.20;4.20;;;6.40;99.90;;;;;;5019410;28;20208;-84
2021/03/16 01:22:40;;;;;;;17.67;3.53;;;6.40;99.90;;;;;;5013835;28;20232;-82
2021/03/16 01:25:24;;;;;;;15.67;3.47;;;6.40;99.90;;;;;;5015642;28;20244;-84
2021/03/16 01:28:12;;;;;;;18.13;3.93;;;6.40;99.90;;;;;;5013318;28;20235;-86
2021/03/16 01:30:58;;;;;;;18.53;3.80;;;6.40;99.90;;;;;;5017567;28;20213;-86
2021/03/16 01:33:44;;;;;;;16.67;3.50;;;6.30;99.90;;;;;;5012117;28;20208;-84
2021/03/16 01:36:29;;;;;;;19.17;3.40;;;6.30;99.90;;;;;;5015773;28;20258;-81
2021/03/16 01:39:13;;;;;;;15.07;2.87;;;6.30;99.90;;;;;;5014466;28;20228;-86
2021/03/16 01:41:58;;;;;;;17.17;3.10;;;6.30;99.90;;;;;;5015118;28;20271;-85
2021/03/16 01:44:44;;;;;;;12.30;2.50;;;6.30;99.90;;;;;;5019469;28;20220;-86
2021/03/16 01:47:30;;;;;;;15.30;2.77;;;6.30;99.90;;;;;;5003137;28;20224;-85
2021/03/16 01:50:18;;;;;;;9.03;2.63;;;6.30;99.90;;;;;;5013478;28;20200;-85
2021/03/16 01:53:04;;;;;;;9.40;3.63;;;6.40;99.90;;;;;;5010528;28;20220;-85
2021/03/16 01:55:51;;;;;;;13.23;2.50;;;6.40;99.90;;;;;;5009258;28;20200;-85
2021/03/16 01:58:37;;;;;;;14.80;2.77;;;6.40;99.90;;;;;;5015287;28;20228;-85
2021/03/16 02:01:23;;;;;;;18.50;3.77;;;6.30;99.90;;;;;;5015236;28;20759;-85
2021/03/16 02:04:08;;;;;;;17.80;3.10;;;6.40;99.90;;;;;;5015967;28;20272;-86
2021/03/16 02:06:59;;;;;;;12.17;2.97;;;6.40;99.90;;;;;;5009624;28;20213;-83
2021/03/16 02:09:50;;;;;;;14.03;3.17;;;6.20;99.90;;;;;;5013680;28;20256;-86
2021/03/16 02:12:43;;;;;;;20.00;3.97;;;6.40;99.90;;;;;;5019930;28;20284;-85
2021/03/16 02:15:33;;;;;;;20.50;3.23;;;6.40;99.90;;;;;;5022216;28;20224;-84
2021/03/16 02:18:23;;;;;;;14.93;4.20;;;6.40;99.90;;;;;;5011402;28;20320;-86
2021/03/16 02:21:18;;;;;;;18.97;3.23;;;6.40;99.90;;;;;;5011618;28;20285;-86
2021/03/16 02:24:34;;;;;;;14.30;3.03;;;6.40;99.90;;;;;;5011044;28;20205;-85
2021/03/16 02:27:23;;;;;;;18.87;3.40;;;6.40;99.90;;;;;;5017470;28;20906;-85
2021/03/16 02:30:12;;;;;;;15.13;2.87;;;6.40;99.90;;;;;;5016483;28;20208;-82
2021/03/16 02:32:59;;;;;;;13.37;2.27;;;6.50;99.90;;;;;;5012652;28;20212;-87
2021/03/16 02:35:48;;;;;;;10.70;2.33;;;6.40;99.90;;;;;;5020116;28;20207;-83
2021/03/16 02:38:39;;;;;;;15.13;2.67;;;6.50;99.90;;;;;;5011316;28;20216;-86
2021/03/16 02:41:26;;;;;;;11.60;2.67;;;6.50;99.90;;;;;;5009306;28;20607;-85
2021/03/16 02:44:18;;;;;;;8.20;2.47;;;6.50;99.90;;;;;;5015932;28;20236;-83
2021/03/16 02:47:05;;;;;;;11.93;2.10;;;6.50;99.90;;;;;;5013717;28;20212;-88
2021/03/16 02:49:52;;;;;;;13.73;2.67;;;6.50;99.90;;;;;;5018391;28;20223;-84
2021/03/16 02:52:38;;;;;;;9.27;2.60;;;6.50;99.90;;;;;;5013692;28;20254;-86
2021/03/16 02:55:23;;;;;;;9.70;2.00;;;6.50;99.90;;;;;;5014501;28;20203;-85
2021/03/16 02:58:09;;;;;;;14.77;2.83;;;6.50;99.90;;;;;;5011796;28;20240;-85
2021/03/16 03:00:55;;;;;;;11.23;2.87;;;6.60;99.90;;;;;;5012775;28;20271;-83
2021/03/16 03:03:43;;;;;;;10.57;2.77;;;6.50;99.90;;;;;;5019624;28;20209;-83
2021/03/16 03:06:30;;;;;;;13.37;2.70;;;6.50;99.90;;;;;;5015422;28;20680;-85
2021/03/16 03:09:15;;;;;;;20.33;3.60;;;6.50;99.90;;;;;;5018684;28;20244;-83
2021/03/16 03:12:01;;;;;;;15.40;2.97;;;6.50;99.90;;;;;;5015174;28;20200;-84
2021/03/16 03:14:46;;;;;;;10.50;2.93;;;6.50;99.90;;;;;;5017277;28;20203;-86
2021/03/16 03:17:31;;;;;;;20.60;3.27;;;6.50;99.90;;;;;;5021933;28;20730;-84
2021/03/16 03:20:18;;;;;;;19.70;3.33;;;6.50;99.90;;;;;;5014376;28;20588;-84
2021/03/16 03:23:11;;;;;;;15.93;3.80;;;6.50;99.90;;;;;;5011260;28;20223;-83
2021/03/16 03:26:01;;;;;;;18.07;3.73;;;6.50;99.90;;;;;;5016683;28;20994;-84
2021/03/16 03:28:47;;;;;;;17.23;3.63;;;6.50;99.90;;;;;;5007926;28;20244;-84
2021/03/16 03:31:33;;;;;;;15.20;3.30;;;6.50;99.90;;;;;;5018669;28;20251;-85
2021/03/16 03:34:19;;;;;;;17.93;2.90;;;6.50;99.90;;;;;;5015857;28;20231;-87
2021/03/16 03:37:08;;;;;;;17.87;3.13;;;6.40;99.90;;;;;;5012719;28;20586;-86
2021/03/16 03:39:54;;;;;;;18.17;3.40;;;6.40;99.90;;;;;;5015754;28;20197;-84
2021/03/16 03:42:40;;;;;;;17.27;3.13;;;6.40;99.90;;;;;;5014119;28;20208;-84
2021/03/16 03:45:26;;;;;;;14.47;2.60;;;6.40;99.90;;;;;;5012512;28;20212;-83
2021/03/16 03:48:14;;;;;;;18.13;3.20;;;6.40;99.90;;;;;;5012845;28;20284;-86
2021/03/16 03:50:59;;;;;;;13.03;2.93;;;6.40;99.90;;;;;;5010414;28;20575;-84
2021/03/16 03:53:47;;;;;;;15.53;3.33;;;6.40;99.90;;;;;;5016218;28;20204;-84
2021/03/16 03:56:35;;;;;;;15.67;4.00;;;6.40;99.90;;;;;;5010689;28;20208;-81
2021/03/16 03:59:21;;;;;;;12.13;3.47;;;6.30;99.90;;;;;;5012760;28;20296;-83
2021/03/16 04:02:06;;;;;;;20.00;3.77;;;6.40;99.90;;;;;;5013899;28;20352;-84
2021/03/16 04:04:53;;;;;;;12.33;2.97;;;6.30;99.90;;;;;;5014164;28;20211;-84
2021/03/16 04:07:38;;;;;;;15.50;3.40;;;6.40;99.90;;;;;;5010434;28;20237;-86
2021/03/16 04:10:27;;;;;;;16.37;4.53;;;6.30;99.90;;;;;;5010239;28;20209;-86
2021/03/16 04:13:13;;;;;;;12.13;3.00;;;6.40;99.90;;;;;;5012790;28;20256;-85
2021/03/16 04:15:58;;;;;;;10.80;3.00;;;6.40;99.90;;;;;;5011030;28;20212;-86
2021/03/16 04:18:44;;;;;;;13.87;3.37;;;6.40;99.90;;;;;;5016164;28;20231;-84
2021/03/16 04:21:29;;;;;;;13.87;3.07;;;6.40;99.90;;;;;;5018609;28;20220;-85
2021/03/16 04:24:15;;;;;;;11.83;3.20;;;6.40;99.90;;;;;;5013157;28;20219;-84
2021/03/16 04:27:00;;;;;;;12.33;3.10;;;6.40;99.90;;;;;;5010035;28;20213;-85
2021/03/16 04:29:45;;;;;;;15.60;4.00;;;6.50;99.90;;;;;;5013074;28;20219;-86
2021/03/16 04:32:30;;;;;;;10.93;3.07;;;6.50;99.90;;;;;;5013641;28;20239;-87
2021/03/16 04:35:14;;;;;;;13.67;3.07;;;6.50;99.90;;;;;;5013683;28;20743;-82
2021/03/16 04:37:59;;;;;;;12.47;3.20;;;6.50;99.90;;;;;;5007347;28;20228;-85
2021/03/16 04:40:44;;;;;;;15.57;3.43;;;6.50;99.90;;;;;;5012106;28;20269;-82
2021/03/16 04:43:30;;;;;;;13.47;3.27;;;6.50;99.90;;;;;;5014369;28;20208;-85
2021/03/16 04:46:16;;;;;;;19.40;3.60;;;6.50;99.90;;;;;;5011178;28;20228;-86
2021/03/16 04:49:02;;;;;;;13.17;3.70;;;6.50;99.90;;;;;;5012730;28;20241;-84
2021/03/16 04:51:52;;;;;;;16.70;3.50;;;6.50;99.90;;;;;;5012305;28;20288;-84
2021/03/16 04:54:37;;;;;;;16.33;4.20;;;6.50;99.90;;;;;;5019993;28;20211;-81
2021/03/16 04:57:22;;;;;;;12.67;3.10;;;6.50;99.90;;;;;;5009476;28;20332;-84
2021/03/16 05:00:09;;;;;;;16.13;3.17;;;6.50;99.90;;;;;;5008901;28;20257;-86
2021/03/16 05:02:53;;;;;;;14.57;3.10;;;6.50;99.90;;;;;;5012637;28;20271;-86
2021/03/16 05:05:47;;;;;;;10.40;3.17;;;6.50;99.90;;;;;;5006070;28;20216;-84
2021/03/16 05:08:32;;;;;;;15.00;3.40;;;6.50;99.90;;;;;;5009343;28;20232;-84
2021/03/16 05:11:18;;;;;;;14.70;2.70;;;6.50;99.90;;;;;;5007995;28;20299;-83
2021/03/16 05:14:03;;;;;;;15.03;3.23;;;6.50;99.90;;;;;;5013752;28;20263;-87
2021/03/16 05:16:49;;;;;;;17.27;3.80;;;6.50;99.90;;;;;;5006089;28;20232;-84
2021/03/16 05:19:34;;;;;;;15.67;2.67;;;6.50;99.90;;;;;;5004328;28;20576;-84
2021/03/16 05:22:18;;;;;;;16.63;2.83;;;6.50;99.90;;;;;;5011697;28;20228;-85
2021/03/16 05:25:08;;;;;;;16.63;2.93;;;6.50;99.90;;;;;;5010387;28;20231;-85
2021/03/16 05:27:53;;;;;;;21.23;3.40;;;6.50;99.90;;;;;;5005931;28;20325;-85
2021/03/16 05:30:38;;;;;;;14.83;2.47;;;6.50;99.90;;;;;;5002486;28;20209;-81
2021/03/16 05:33:23;;;;;;;17.57;3.17;;;6.50;99.90;;;;;;5012600;28;20217;-86
2021/03/16 05:36:09;;;;;;;17.53;3.10;;;6.50;99.90;;;;;;5009887;28;20271;-84
2021/03/16 05:38:54;;;;;;;21.90;3.97;;;6.70;99.90;;;;;;5011385;28;20232;-85
2021/03/16 05:41:41;;;;;;;13.63;3.30;;;6.50;99.90;;;;;;5010195;28;20308;-85
2021/03/16 05:44:27;;;;;;;12.33;2.67;;;6.50;99.90;;;;;;5007975;28;20219;-85
2021/03/16 05:47:13;;;;;;;16.67;3.60;;;6.50;99.90;;;;;;5008173;28;20790;-86
2021/03/16 05:49:58;;;;;;;11.97;2.80;;;6.50;99.90;;;;;;5014599;28;20199;-84
2021/03/16 05:52:43;;;;;;;13.83;2.90;;;6.50;99.90;;;;;;5010255;28;20232;-86
2021/03/16 05:55:28;;;;;;;17.67;4.03;;;6.50;99.90;;;;;;5005771;28;20258;-84
2021/03/16 05:58:14;;;;;;;18.40;3.43;;;6.60;99.90;;;;;;5014664;28;20243;-86
2021/03/16 06:00:59;;;;;;;16.80;3.53;;;6.50;99.90;;;;;;5004818;28;20330;-86
2021/03/16 06:03:46;;;;;;;23.00;4.37;;;6.50;99.90;;;;;;5005019;28;20280;-85
2021/03/16 06:06:32;;;;;;;17.30;4.03;;;6.50;99.90;;;;;;5007801;28;20212;-79
2021/03/16 06:09:17;;;;;;;19.70;4.20;;;6.50;99.90;;;;;;5021131;28;20544;-82
2021/03/16 06:12:03;;;;;;;14.60;3.30;;;6.60;99.90;;;;;;5025006;28;20204;-81
2021/03/16 06:14:48;;;;;;;18.27;4.07;;;6.60;99.90;;;;;;5027512;28;20212;-80
2021/03/16 06:17:33;;;;;;;14.57;3.50;;;6.60;99.90;;;;;;5025966;28;20244;-85
2021/03/16 06:20:29;;;;;;;19.03;3.50;;;6.60;99.90;;;;;;5004758;28;20281;-85
2021/03/16 06:23:14;;;;;;;17.07;3.57;;;6.60;99.90;;;;;;5013702;28;20288;-85
2021/03/16 06:26:00;;;;;;;16.07;3.63;;;6.60;99.90;;;;;;5015812;28;20260;-84
2021/03/16 06:28:45;;;;;;;18.00;3.97;;;6.60;99.90;;;;;;5006786;28;20574;-84
2021/03/16 06:31:29;;;;;;;16.30;3.53;;;6.60;99.90;;;;;;5007744;28;20228;-83
2021/03/16 06:34:22;;;;;;;27.17;4.33;;;6.70;99.90;;;;;;5014863;28;20199;-84
2021/03/16 06:37:07;;;;;;;17.83;3.53;;;6.70;99.90;;;;;;5005404;28;20227;-83
2021/03/16 06:39:57;;;;;;;22.90;4.27;;;6.70;99.90;;;;;;5004885;28;20233;-85
2021/03/16 06:42:42;;;;;;;17.97;3.77;;;6.70;99.90;;;;;;5007548;28;20232;-84
2021/03/16 06:45:30;;;;;;;20.53;3.73;;;6.70;99.90;;;;;;5009612;28;20300;-85
2021/03/16 06:48:16;;;;;;;18.93;4.07;;;6.70;99.90;;;;;;5003875;28;20237;-85
2021/03/16 06:51:10;;;;;;;24.00;5.00;;;6.80;99.90;;;;;;5011659;28;20216;-84
2021/03/16 06:54:06;;;;;;;21.80;4.63;;;6.80;99.90;;;;;;5004741;28;20251;-84
2021/03/16 06:56:53;;;;;;;19.43;4.53;;;6.90;99.90;;;;;;5011513;28;20247;-86
2021/03/16 06:59:37;;;;;;;18.50;4.87;;;6.90;99.90;;;;;;5012822;28;20241;-84
2021/03/16 07:02:22;;;;;;;16.83;4.70;;;6.90;99.90;;;;;;5007494;28;20227;-85
2021/03/16 07:05:08;;;;;;;18.33;4.37;;;7.00;99.90;;;;;;5002669;28;20212;-84
2021/03/16 07:07:53;;;;;;;10.80;4.20;;;7.00;99.90;;;;;;5010570;28;20248;-83
2021/03/16 07:10:40;;;;;;;18.00;4.13;;;7.00;99.90;;;;;;5012478;28;20296;-84
2021/03/16 07:13:28;;;;;;;18.17;3.20;;;7.10;99.90;;;;;;5010652;28;20212;-84
2021/03/16 07:35:01;;;;;;;18.30;3.87;;;7.40;99.90;;;;;;5039438;28;20219;-80
2021/03/16 07:37:47;;;;;;;16.03;4.10;;;7.50;99.90;;;;;;5049655;28;20211;-80
2021/03/16 07:40:33;;;;;;;17.77;4.13;;;7.60;99.90;;;;;;5045923;28;20566;-79
2021/03/16 07:43:18;;;;;;;23.87;3.97;;;7.70;99.90;;;;;;5043622;28;20235;-79
2021/03/16 07:46:11;;;;;;;19.43;4.27;;;7.70;99.90;;;;;;5030298;28;20231;-79
2021/03/16 07:48:57;;;;;;;13.73;4.10;;;7.80;99.90;;;;;;5030585;28;20782;-79
2021/03/16 07:51:44;;;;;;;16.60;4.07;;;7.90;99.90;;;;;;5027538;28;20718;-79
2021/03/16 07:54:32;;;;;;;17.33;4.30;;;8.10;99.90;;;;;;5031868;28;20290;-79
2021/03/16 07:57:26;;;;;;;16.17;4.63;;;8.20;99.90;;;;;;5027114;28;20203;-80
2021/03/16 08:00:15;;;;;;;18.37;4.03;;;8.30;99.90;;;;;;5023907;28;20691;-80
2021/03/16 08:03:06;;;;;;;19.50;4.97;;;8.50;99.90;;;;;;5024390;28;20291;-80
2021/03/16 08:05:52;;;;;;;17.73;3.93;;;8.60;99.90;;;;;;5033976;28;20202;-79
2021/03/16 08:08:42;;;;;;;20.00;5.13;;;8.70;99.90;;;;;;5025908;28;20731;-80
2021/03/16 08:11:38;;;;;;;16.13;4.80;;;8.80;99.90;;;;;;5031532;28;20210;-80
2021/03/16 08:14:25;;;;;;;21.00;5.53;;;8.90;99.90;;;;;;5036414;28;20231;-79
2021/03/16 08:17:10;;;;;;;15.63;5.40;;;8.90;99.90;;;;;;5036548;28;20247;-79
2021/03/16 08:19:56;;;;;;;17.20;4.80;;;9.00;99.90;;;;;;5026403;28;20266;-80
2021/03/16 08:22:40;;;;;;;15.93;4.90;;;9.00;99.90;;;;;;5034544;28;20287;-79
2021/03/16 08:25:27;;;;;;;15.10;3.63;;;9.10;99.90;;;;;;5056295;28;20196;-79
2021/03/16 08:28:15;;;;;;;16.17;5.03;;;9.10;99.90;;;;;;5056323;28;20214;-79
2021/03/16 08:31:01;;;;;;;15.63;5.23;;;9.20;99.90;;;;;;5033171;28;20203;-79
2021/03/16 08:33:47;;;;;;;13.40;3.80;;;9.20;99.90;;;;;;5031893;28;20610;-79
2021/03/16 08:36:37;;;;;;;17.43;5.33;;;9.30;99.90;;;;;;5023561;28;20279;-79
2021/03/16 08:39:23;;;;;;;15.43;3.80;;;9.30;99.90;;;;;;5035390;28;20231;-79
2021/03/16 08:42:09;;;;;;;15.30;4.00;;;9.40;99.90;;;;;;5036295;28;20210;-81
2021/03/16 08:44:55;;;;;;;17.07;4.00;;;9.40;99.90;;;;;;5034894;28;20215;-80
2021/03/16 08:47:40;;;;;;;15.37;3.77;;;9.40;99.90;;;;;;5031384;28;20199;-80
2021/03/16 08:50:26;;;;;;;12.63;4.20;;;9.50;99.90;;;;;;5034055;28;20235;-80
2021/03/16 08:53:15;;;;;;;12.20;4.00;;;9.50;99.90;;;;;;5037307;28;20271;-79
2021/03/16 08:56:00;;;;;;;13.93;3.97;;;9.60;99.90;;;;;;5039071;28;20231;-80
2021/03/16 08:58:45;;;;;;;15.90;3.90;;;9.60;99.90;;;;;;5038029;28;20718;-81
2021/03/16 09:01:31;;;;;;;14.60;4.07;;;9.80;99.90;;;;;;5030378;28;20255;-81
2021/03/16 09:04:17;;;;;;;13.13;3.33;;;9.90;99.90;;;;;;5035183;28;20274;-81
2021/03/16 09:07:04;;;;;;;15.37;4.20;;;9.90;99.90;;;;;;5035931;28;20207;-81
2021/03/16 09:09:50;;;;;;;14.63;3.97;;;10.00;99.90;;;;;;5038471;28;20211;-81
2021/03/16 09:12:37;;;;;;;12.27;4.37;;;10.20;99.90;;;;;;5033333;28;20211;-80
2021/03/16 09:15:25;;;;;;;14.70;4.40;;;10.20;99.90;;;;;;5035865;28;20746;-80
2021/03/16 09:18:12;;;;;;;11.60;3.87;;;10.30;99.90;;;;;;5028301;28;20199;-80
2021/03/16 09:21:03;;;;;;;9.53;3.27;;;10.40;99.90;;;;;;5032507;28;20248;-81
2021/03/16 09:23:50;;;;;;;16.63;3.77;;;10.50;99.90;;;;;;5038198;28;20223;-80
2021/03/16 09:26:35;;;;;;;10.87;3.83;;;10.60;99.90;;;;;;5029614;28;20629;-80
2021/03/16 09:29:20;;;;;;;12.80;4.23;;;10.80;99.90;;;;;;5038197;28;20258;-80
2021/03/16 09:32:08;;;;;;;13.43;3.77;;;10.90;99.90;;;;;;5028821;28;20220;-81
2021/03/16 09:34:53;;;;;;;13.77;3.90;;;11.10;99.90;;;;;;5045694;28;20697;-81
2021/03/16 09:37:43;;;;;;;13.40;4.40;;;11.30;99.90;;;;;;5033964;28;20219;-80
2021/03/16 09:40:33;;;;;;;11.77;4.20;;;11.50;99.90;;;;;;5038359;28;20291;-82
2021/03/16 09:43:20;;;;;;;10.43;3.83;;;11.60;99.90;;;;;;5037239;28;20215;-80
2021/03/16 09:46:07;;;;;;;11.83;3.97;;;11.90;99.90;;;;;;5036516;28;20210;-81
2021/03/16 09:48:55;;;;;;;13.03;3.40;;;12.10;99.90;;;;;;5033502;28;20206;-81
2021/03/16 09:51:45;;;;;;;9.97;3.10;;;12.30;99.90;;;;;;5035787;28;20899;-81
2021/03/16 09:54:41;;;;;;;13.10;3.27;;;12.40;99.90;;;;;;5031149;28;20223;-80
2021/03/16 09:57:32;;;;;;;12.10;4.00;;;12.60;99.90;;;;;;5033855;28;20283;-82
2021/03/16 10:00:18;;;;;;;13.33;3.47;;;12.70;99.90;;;;;;5039337;28;20729;-81
2021/03/16 10:03:06;;;;;;;8.90;3.10;;;12.80;99.90;;;;;;5031030;28;20247;-80
2021/03/16 10:06:02;;;;;;;8.83;2.73;;;12.80;99.90;;;;;;5037355;28;20263;-81
2021/03/16 10:08:47;;;;;;;9.10;2.83;;;12.80;99.90;;;;;;5036366;28;20349;-80
2021/03/16 10:11:33;;;;;;;11.47;3.07;;;12.80;99.90;;;;;;5030714;28;20211;-81
2021/03/16 10:14:24;;;;;;;14.50;3.30;;;12.80;99.90;;;;;;5031587;28;20300;-81
2021/03/16 10:17:09;;;;;;;11.73;3.67;;;12.80;99.90;;;;;;5035985;28;20687;-80
2021/03/16 10:19:55;;;;;;;9.03;3.60;;;12.80;99.90;;;;;;5041012;28;20206;-80
2021/03/16 10:22:41;;;;;;;10.90;3.07;;;13.00;99.90;;;;;;5037904;28;20219;-81
2021/03/16 10:25:28;;;;;;;10.57;3.50;;;13.10;99.90;;;;;;5040822;28;20211;-80
2021/03/16 10:28:13;;;;;;;10.67;4.17;;;13.30;99.90;;;;;;5040223;28;20610;-81
2021/03/16 10:31:12;;;;;;;9.33;3.27;;;13.40;99.90;;;;;;5040509;28;20287;-82
2021/03/16 10:33:57;;;;;;;11.43;3.10;;;13.60;99.90;;;;;;5035842;28;20266;-80
2021/03/16 10:36:42;;;;;;;6.80;3.17;;;13.70;99.90;;;;;;5035311;28;20283;-81
2021/03/16 10:39:28;;;;;;;11.30;2.93;;;13.80;99.90;;;;;;5036539;28;20286;-80
2021/03/16 10:42:13;;;;;;;13.60;3.40;;;13.80;99.90;;;;;;5034021;28;20586;-80
2021/03/16 10:44:58;;;;;;;10.77;2.90;;;13.90;99.90;;;;;;5041184;28;20562;-81
2021/03/16 10:47:43;;;;;;;9.83;2.57;;;13.90;99.90;;;;;;5026897;28;20224;-81
2021/03/16 10:50:28;;;;;;;10.27;2.70;;;13.90;99.90;;;;;;5036546;28;20576;-80
2021/03/16 10:53:13;;;;;;;11.53;3.30;;;13.90;99.90;;;;;;5040766;28;20243;-80
2021/03/16 10:55:59;;;;;;;11.77;3.53;;;13.90;99.90;;;;;;5032839;28;20222;-81
2021/03/16 10:58:44;;;;;;;5.90;3.00;;;13.90;99.90;;;;;;5034297;28;20227;-80
2021/03/16 11:01:29;;;;;;;10.07;3.40;;;14.00;99.90;;;;;;5035107;28;20222;-81
2021/03/16 11:04:14;;;;;;;12.43;3.40;;;14.20;99.90;;;;;;5037420;28;20266;-81
2021/03/16 11:06:59;;;;;;;12.97;3.43;;;14.60;99.90;;;;;;5039957;28;20208;-81
2021/03/16 11:09:44;;;;;;;10.27;3.87;;;15.00;99.90;;;;;;5040222;28;20608;-82
2021/03/16 11:12:29;;;;;;;13.60;3.90;;;15.40;99.90;;;;;;5040555;28;20695;-81
2021/03/16 11:15:14;;;;;;;10.13;3.97;;;15.80;99.90;;;;;;5037689;28;20205;-80
2021/03/16 11:17:59;;;;;;;11.03;3.70;;;16.10;99.90;;;;;;5050180;28;20199;-80
2021/03/16 11:20:44;;;;;;;8.87;3.10;;;16.20;99.90;;;;;;5038153;28;20231;-81
2021/03/16 11:23:29;;;;;;;13.67;3.23;;;16.20;99.90;;;;;;5035686;28;20236;-80
2021/03/16 11:26:13;;;;;;;13.27;4.17;;;16.20;99.90;;;;;;5036335;28;20240;-80
2021/03/16 11:29:00;;;;;;;10.10;3.80;;;16.10;99.90;;;;;;5035325;28;20228;-80
2021/03/16 11:31:45;;;;;;;8.97;3.90;;;16.00;99.90;;;;;;5025371;28;20204;-80
2021/03/16 11:34:30;;;;;;;12.50;3.90;;;15.80;99.90;;;;;;5036378;28;20240;-80
2021/03/16 11:37:15;;;;;;;10.87;3.87;;;15.70;99.90;;;;;;5037339;28;20233;-81
2021/03/16 11:40:00;;;;;;;9.60;3.90;;;15.50;99.90;;;;;;5036691;28;20204;-80
2021/03/16 11:42:44;;;;;;;9.97;3.67;;;15.30;99.90;;;;;;5037130;28;20588;-80
2021/03/16 11:45:30;;;;;;;9.50;3.37;;;15.20;99.90;;;;;;5044946;28;20253;-80
2021/03/16 11:48:15;;;;;;;13.67;3.80;;;15.10;99.90;;;;;;5045927;28;20218;-80
2021/03/16 11:51:00;;;;;;;9.27;3.37;;;14.90;99.90;;;;;;5040992;28;20265;-80
2021/03/16 11:53:45;;;;;;;10.00;3.07;;;14.80;99.90;;;;;;5034965;28;20284;-80
2021/03/16 11:56:30;;;;;;;9.03;3.73;;;14.70;99.90;;;;;;5039547;28;20212;-81
2021/03/16 11:59:15;;;;;;;11.53;4.27;;;14.60;99.90;;;;;;5040513;28;20211;-81
2021/03/16 12:02:00;;;;;;;9.23;3.53;;;14.50;99.90;;;;;;5038194;28;20219;-81
2021/03/16 12:04:45;;;;;;;9.37;3.20;;;14.50;99.90;;;;;;5033341;28;20319;-81
2021/03/16 12:07:31;;;;;;;7.90;3.17;;;14.60;99.90;;;;;;5040436;28;20211;-81
2021/03/16 12:10:16;;;;;;;9.73;3.40;;;14.60;99.90;;;;;;5040982;28;20203;-79
2021/03/16 12:13:01;;;;;;;8.10;3.00;;;14.70;99.90;;;;;;5038941;28;20246;-81
2021/03/16 12:15:46;;;;;;;10.83;3.00;;;14.80;99.90;;;;;;5039149;28;20231;-81
2021/03/16 12:18:31;;;;;;;7.40;2.63;;;14.80;99.90;;;;;;5040334;28;20215;-81
2021/03/16 12:21:16;;;;;;;10.67;2.80;;;14.90;99.90;;;;;;5039699;28;20220;-82
2021/03/16 12:24:01;;;;;;;8.73;3.10;;;14.90;99.90;;;;;;5034851;28;20255;-80
2021/03/16 12:26:45;;;;;;;6.30;2.97;;;14.90;99.90;;;;;;5040641;28;20215;-80
2021/03/16 12:29:30;;;;;;;4.70;2.93;;;14.90;99.90;;;;;;5038492;28;20204;-81
2021/03/16 12:32:15;;;;;;;7.53;2.40;;;14.90;99.90;;;;;;5032577;28;20780;-80
2021/03/16 12:35:01;;;;;;;5.83;2.57;;;14.80;99.90;;;;;;5031418;28;20653;-81
2021/03/16 12:37:46;;;;;;;6.07;3.00;;;14.80;99.90;;;;;;5036246;28;20222;-81
2021/03/16 12:40:31;;;;;;;9.23;2.90;;;14.80;99.90;;;;;;5040004;28;20207;-81
2021/03/16 12:43:17;;;;;;;6.47;2.97;;;14.80;99.90;;;;;;5037539;28;20231;-80
2021/03/16 12:46:01;;;;;;;6.03;2.80;;;14.80;99.90;;;;;;5040641;28;20204;-82
2021/03/16 12:48:46;;;;;;;8.43;3.10;;;14.80;99.90;;;;;;5036314;28;20215;-82
2021/03/16 12:51:32;;;;;;;8.27;3.13;;;14.80;99.90;;;;;;5040527;28;20797;-81
2021/03/16 12:54:17;;;;;;;5.37;2.70;;;14.80;99.90;;;;;;5036992;28;20247;-81
2021/03/16 12:57:02;;;;;;;5.40;2.90;;;14.90;99.90;;;;;;5041053;28;20211;-80
2021/03/16 12:59:47;;;;;;;6.00;3.43;;;14.90;99.90;;;;;;5037842;28;20254;-81
2021/03/16 13:02:31;;;;;;;4.50;2.50;;;14.90;99.90;;;;;;5036449;28;20236;-81
2021/03/16 13:05:18;;;;;;;4.20;2.00;;;14.90;99.90;;;;;;5039602;28;20238;-81
2021/03/16 13:08:05;;;;;;;6.40;2.50;;;14.90;99.90;;;;;;5038818;28;20309;-81
2021/03/16 13:10:49;;;;;;;6.50;2.60;;;14.90;99.90;;;;;;5038996;28;20212;-81
2021/03/16 13:13:34;;;;;;;10.13;3.10;;;14.90;99.90;;;;;;5041030;28;20876;-80
2021/03/16 13:16:19;;;;;;;5.90;2.70;;;14.80;99.90;;;;;;5037129;28;20199;-80
2021/03/16 13:19:04;;;;;;;8.73;2.97;;;14.70;99.90;;;;;;5041247;28;20213;-81
2021/03/16 13:21:49;;;;;;;5.83;2.37;;;14.60;99.90;;;;;;5040052;28;20219;-81
2021/03/16 13:24:35;;;;;;;2.67;1.90;;;14.60;99.90;;;;;;5031641;28;20227;-82
2021/03/16 13:27:19;;;;;;;2.67;2.27;;;14.50;99.90;;;;;;5041132;28;20227;-81
2021/03/16 13:30:05;;;;;;;5.43;2.10;;;14.50;99.90;;;;;;5034424;28;20203;-80
2021/03/16 13:32:50;;;;;;;4.90;2.10;;;14.30;99.90;;;;;;5049912;28;20309;-81
2021/03/16 13:35:35;;;;;;;4.23;2.47;;;14.20;99.90;;;;;;5042950;28;20211;-80
2021/03/16 13:38:21;;;;;;;5.10;2.20;;;14.10;99.90;;;;;;5045860;28;20558;-81
2021/03/16 13:41:07;;;;;;;5.20;1.57;;;14.00;99.90;;;;;;5050828;28;20203;-80
2021/03/16 13:43:51;;;;;;;6.40;1.93;;;13.90;99.90;;;;;;5111829;22;20269;-78
2021/03/16 13:46:36;;;;;;;4.87;2.03;;;13.80;99.90;;;;;;5027669;28;20223;-79
2021/03/16 13:49:21;;;;;;;3.97;2.50;;;13.60;99.90;;;;;;5031997;28;20307;-80
2021/03/16 13:52:06;;;;;;;5.10;1.83;;;13.40;99.90;;;;;;5023182;28;20290;-79
2021/03/16 13:54:51;;;;;;;7.37;2.57;;;13.30;99.90;;;;;;5027352;28;20240;-79
2021/03/16 13:57:36;;;;;;;5.43;2.40;;;13.20;99.90;;;;;;5013257;28;20215;-78
2021/03/16 14:00:21;;;;;;;2.67;2.00;;;13.10;99.90;;;;;;5012306;28;20227;-78
2021/03/16 14:03:06;;;;;;;5.50;2.30;;;12.90;99.90;;;;;;5014795;28;20219;-80
2021/03/16 14:05:52;;;;;;;3.43;2.17;;;12.80;99.90;;;;;;5020934;28;20235;-79
2021/03/16 14:08:37;;;;;;;6.53;2.33;;;12.70;99.90;;;;;;5015257;28;20527;-79
2021/03/16 14:11:23;;;;;;;7.23;2.37;;;12.50;99.90;;;;;;5013176;28;20226;-79
2021/03/16 14:14:09;;;;;;;3.47;2.40;;;12.40;99.90;;;;;;5007887;28;20228;-78
2021/03/16 14:16:54;;;;;;;304.50;31.90;;;12.20;99.90;;;;;;5019824;28;20260;-79
2021/03/16 14:19:38;;;;;;;31.10;6.63;;;12.00;99.90;;;;;;5019059;28;20329;-79
2021/03/16 14:22:23;;;;;;;29.80;4.93;;;11.90;99.90;;;;;;5013209;28;21177;-78
2021/03/16 14:25:10;;;;;;;3.90;2.00;;;11.80;99.90;;;;;;5015908;28;20280;-79
2021/03/16 14:27:55;;;;;;;5.50;2.30;;;11.60;99.90;;;;;;5018109;28;20208;-79
2021/03/16 14:30:41;;;;;;;6.67;2.40;;;11.50;99.90;;;;;;5013850;28;20283;-80
2021/03/16 14:33:26;;;;;;;2.67;2.27;;;11.40;99.90;;;;;;5011913;28;20264;-79
2021/03/16 14:36:12;;;;;;;5.27;2.60;;;11.20;99.90;;;;;;5014169;28;20215;-79
2021/03/16 14:38:57;;;;;;;2.53;2.10;;;11.20;99.90;;;;;;5016120;28;20320;-78
2021/03/16 14:41:42;;;;;;;255.57;28.30;;;11.00;99.90;;;;;;5012209;28;20260;-78